Time;durP1;ratioP1;P1;durP2;ratioP2;P2;SDS_P1;SDS_P2;PMS_P1;PMS_P2;Temp;Humidity;BMP_temperature;BMP_pressure;BME280_temperature;BME280_humidity;BME280_pressure;Samples;Min_cycle;Max_cycle;Signal;HPM_P1;HPM_P2
2021/07/24 00:02:25;;;;;;;11.57;9.57;;;564.10;2176.00;;;;;;5033346;28;20041;-77
2021/07/24 00:04:51;;;;;;;13.65;11.23;;;564.10;2176.00;;;;;;5033575;28;20064;-77
2021/07/24 00:07:16;;;;;;;12.68;9.77;;;564.10;2176.00;;;;;;5033511;28;20021;-78
2021/07/24 00:09:42;;;;;;;11.80;9.98;;;564.10;2176.00;;;;;;5033670;28;20040;-76
2021/07/24 00:12:12;;;;;;;14.73;9.80;;;564.10;2176.00;;;;;;5033685;28;20044;-77
2021/07/24 00:14:37;;;;;;;12.25;8.98;;;564.10;2150.40;;;;;;5034040;28;20060;-76
2021/07/24 00:17:03;;;;;;;12.00;9.27;;;564.10;2150.40;;;;;;5033647;28;20102;-77
2021/07/24 00:19:29;;;;;;;12.43;9.45;;;564.10;2176.00;;;;;;5033664;28;20028;-76
2021/07/24 00:21:55;;;;;;;11.40;8.85;;;564.10;2150.40;;;;;;5034414;28;20033;-77
2021/07/24 00:24:21;;;;;;;14.40;9.07;;;563.90;2176.00;;;;;;5034874;28;20030;-77
2021/07/24 00:26:48;;;;;;;16.73;10.55;;;563.90;2176.00;;;;;;5034244;28;20375;-76
2021/07/24 00:29:16;;;;;;;10.93;9.15;;;564.00;2176.00;;;;;;5033496;28;20382;-77
2021/07/24 00:31:43;;;;;;;13.27;9.52;;;564.00;2176.00;;;;;;5034597;28;20033;-77
2021/07/24 00:34:08;;;;;;;16.30;10.60;;;564.00;2176.00;;;;;;5034596;28;20497;-76
2021/07/24 00:36:34;;;;;;;13.27;10.27;;;563.90;2176.00;;;;;;5033424;28;20061;-77
2021/07/24 00:39:01;;;;;;;12.77;9.82;;;563.90;2176.00;;;;;;5033223;28;20481;-77
2021/07/24 00:41:36;;;;;;;14.48;9.75;;;563.80;2201.60;;;;;;5034581;28;20491;-76
2021/07/24 00:44:03;;;;;;;13.73;9.88;;;563.70;2227.20;;;;;;5034193;28;20381;-76
2021/07/24 00:46:35;;;;;;;11.95;9.55;;;563.70;2227.20;;;;;;5033238;28;20045;-76
2021/07/24 00:49:01;;;;;;;18.52;10.10;;;563.60;2252.80;;;;;;5034226;28;20033;-76
2021/07/24 00:51:31;;;;;;;12.90;10.35;;;563.60;2227.20;;;;;;5033063;28;20036;-77
2021/07/24 00:53:58;;;;;;;13.82;10.10;;;563.70;2252.80;;;;;;5033495;28;20059;-78
2021/07/24 00:56:25;;;;;;;17.13;10.38;;;563.70;2227.20;;;;;;5032924;28;20041;-76
2021/07/24 00:58:51;;;;;;;12.93;10.93;;;563.70;2227.20;;;;;;5033923;28;20021;-76
2021/07/24 01:01:17;;;;;;;11.02;9.43;;;563.70;2252.80;;;;;;5032468;28;20385;-77
2021/07/24 01:03:43;;;;;;;16.70;11.32;;;563.70;2252.80;;;;;;5032773;28;20057;-76
2021/07/24 01:06:12;;;;;;;12.80;10.80;;;563.80;2252.80;;;;;;5032609;28;20119;-76
2021/07/24 01:08:38;;;;;;;16.80;10.27;;;563.70;2252.80;;;;;;5034066;28;20052;-77
2021/07/24 01:11:05;;;;;;;13.75;9.80;;;563.80;2252.80;;;;;;5032339;28;20025;-76
2021/07/24 01:13:35;;;;;;;12.40;9.80;;;563.90;2252.80;;;;;;5033922;28;20152;-78
2021/07/24 01:16:01;;;;;;;11.85;10.63;;;563.80;2252.80;;;;;;5033879;28;20155;-77
2021/07/24 01:18:26;;;;;;;12.18;9.23;;;563.80;2252.80;;;;;;5033631;28;20060;-77
2021/07/24 01:20:56;;;;;;;11.80;9.98;;;563.80;2252.80;;;;;;5032579;28;20513;-76
2021/07/24 01:23:21;;;;;;;11.23;9.75;;;563.80;2252.80;;;;;;5032382;28;20021;-77
2021/07/24 01:25:52;;;;;;;18.05;10.73;;;563.80;2227.20;;;;;;5033253;28;20394;-77
2021/07/24 01:28:30;;;;;;;15.45;10.15;;;563.80;2227.20;;;;;;5032256;28;20036;-77
2021/07/24 01:30:57;;;;;;;12.70;9.50;;;563.80;2227.20;;;;;;5032520;28;20050;-74
2021/07/24 01:33:23;;;;;;;15.18;11.05;;;563.80;2252.80;;;;;;5032858;28;20026;-76
2021/07/24 01:35:50;;;;;;;12.90;9.52;;;563.80;2252.80;;;;;;5032175;28;20030;-76
2021/07/24 01:38:17;;;;;;;12.50;9.85;;;563.80;2252.80;;;;;;5033116;28;20076;-76
2021/07/24 01:40:43;;;;;;;17.73;11.20;;;563.70;2252.80;;;;;;5031974;28;20026;-75
2021/07/24 01:43:09;;;;;;;15.55;9.57;;;563.90;2252.80;;;;;;5033345;28;20029;-77
2021/07/24 01:45:37;;;;;;;18.10;11.38;;;563.70;2252.80;;;;;;5032082;28;20065;-77
2021/07/24 01:48:05;;;;;;;13.52;9.82;;;563.70;2252.80;;;;;;5032174;28;20025;-76
2021/07/24 01:53:18;;;;;;;13.52;10.23;;;563.70;2278.40;;;;;;5033529;28;20032;-76
2021/07/24 01:55:53;;;;;;;20.30;10.55;;;563.70;2252.80;;;;;;5033175;28;20045;-75
2021/07/24 01:58:29;;;;;;;13.38;9.30;;;563.70;2252.80;;;;;;5031987;28;20088;-77
2021/07/24 02:00:58;;;;;;;13.88;10.75;;;563.60;2252.80;;;;;;5032083;28;20037;-76
2021/07/24 02:03:26;;;;;;;11.88;10.32;;;563.60;2252.80;;;;;;5031812;28;20036;-75
2021/07/24 02:05:53;;;;;;;14.70;10.52;;;563.70;2252.80;;;;;;5032149;28;20106;-76
2021/07/24 02:08:25;;;;;;;13.43;11.02;;;563.70;2278.40;;;;;;5033059;28;20021;-76
2021/07/24 02:10:51;;;;;;;15.98;10.95;;;563.70;2252.80;;;;;;5031707;28;20439;-76
2021/07/24 02:13:19;;;;;;;13.32;9.95;;;563.70;2252.80;;;;;;5033255;28;20025;-76
2021/07/24 02:15:45;;;;;;;12.85;10.73;;;563.70;2252.80;;;;;;5031819;28;20026;-75
2021/07/24 02:18:17;;;;;;;10.57;9.45;;;563.70;2252.80;;;;;;5033753;28;20018;-76
2021/07/24 02:20:46;;;;;;;11.57;9.90;;;563.70;2278.40;;;;;;5031887;28;20025;-77
2021/07/24 02:23:12;;;;;;;12.55;9.75;;;563.70;2252.80;;;;;;5032053;28;20097;-76
2021/07/24 02:25:38;;;;;;;12.75;11.10;;;563.60;2252.80;;;;;;5031569;28;20041;-76
2021/07/24 02:28:03;;;;;;;14.30;10.18;;;563.70;2252.80;;;;;;5033003;28;20026;-77
2021/07/24 02:30:29;;;;;;;19.58;10.77;;;563.70;2278.40;;;;;;5031756;28;20029;-76
2021/07/24 02:32:55;;;;;;;16.27;10.23;;;563.70;2278.40;;;;;;5033051;28;20036;-77
2021/07/24 02:35:21;;;;;;;11.73;10.13;;;563.60;2278.40;;;;;;5033055;28;20105;-77
2021/07/24 02:37:47;;;;;;;12.98;9.40;;;563.60;2278.40;;;;;;5033052;28;20017;-75
2021/07/24 02:40:12;;;;;;;13.63;9.95;;;563.70;2278.40;;;;;;5031706;28;20026;-76
2021/07/24 02:42:38;;;;;;;11.43;9.88;;;563.70;2252.80;;;;;;5031926;28;20041;-77
2021/07/24 02:45:05;;;;;;;15.32;10.60;;;563.60;2278.40;;;;;;5035792;28;20084;-75
2021/07/24 02:47:31;;;;;;;14.63;9.70;;;563.40;2304.00;;;;;;5035440;28;20029;-76
2021/07/24 02:49:56;;;;;;;15.75;11.60;;;563.40;2304.00;;;;;;5035230;28;20033;-76
2021/07/24 02:52:22;;;;;;;14.07;10.98;;;563.40;2304.00;;;;;;5036601;28;20530;-76
2021/07/24 02:54:48;;;;;;;16.90;11.27;;;563.40;2304.00;;;;;;5036770;28;20025;-75
2021/07/24 02:57:14;;;;;;;13.30;11.13;;;563.40;2329.60;;;;;;5035406;28;20033;-76
2021/07/24 02:59:40;;;;;;;13.43;9.73;;;563.40;2329.60;;;;;;5036290;28;20033;-77
2021/07/24 03:02:06;;;;;;;12.82;10.15;;;563.40;2329.60;;;;;;5034923;28;20018;-76
2021/07/24 03:04:31;;;;;;;21.98;10.75;;;563.50;2329.60;;;;;;5035084;28;20028;-77
2021/07/24 03:06:58;;;;;;;15.40;10.15;;;563.40;2329.60;;;;;;5034745;28;20504;-77
2021/07/24 03:09:24;;;;;;;12.95;10.75;;;563.40;2355.20;;;;;;5036185;28;20099;-77
2021/07/24 03:11:50;;;;;;;15.68;11.45;;;563.20;2355.20;;;;;;5035852;28;20101;-77
2021/07/24 03:14:15;;;;;;;16.55;10.95;;;563.40;2355.20;;;;;;5035870;28;20108;-77
2021/07/24 03:16:41;;;;;;;14.75;10.85;;;563.40;2355.20;;;;;;5035246;28;20161;-77
2021/07/24 03:19:07;;;;;;;15.43;11.82;;;563.50;2355.20;;;;;;5036026;28;20469;-77
2021/07/24 03:21:33;;;;;;;17.15;10.70;;;563.50;2380.80;;;;;;5035962;28;20036;-77
2021/07/24 03:23:58;;;;;;;12.75;11.43;;;563.50;2355.20;;;;;;5034652;28;20030;-76
2021/07/24 03:26:24;;;;;;;15.52;11.23;;;563.50;2355.20;;;;;;5033929;28;20046;-77
2021/07/24 03:28:50;;;;;;;14.65;10.70;;;563.50;2355.20;;;;;;5033906;28;20121;-77
2021/07/24 03:31:16;;;;;;;18.33;11.15;;;563.50;2355.20;;;;;;5034528;28;20061;-77
2021/07/24 03:33:41;;;;;;;15.20;10.55;;;563.50;2355.20;;;;;;5034310;28;20529;-78
2021/07/24 03:36:07;;;;;;;13.10;11.02;;;563.50;2355.20;;;;;;5034657;28;20033;-77
2021/07/24 03:38:33;;;;;;;13.57;11.38;;;563.50;2355.20;;;;;;5034454;28;20029;-76
2021/07/24 03:41:01;;;;;;;16.55;10.93;;;563.50;2380.80;;;;;;5035691;28;20428;-76
2021/07/24 03:43:27;;;;;;;17.27;11.77;;;563.60;2380.80;;;;;;5034082;28;20078;-77
2021/07/24 03:45:52;;;;;;;15.73;12.98;;;563.60;2380.80;;;;;;5034044;28;20124;-76
2021/07/24 03:48:18;;;;;;;14.07;11.75;;;563.60;2380.80;;;;;;5034159;28;20030;-78
2021/07/24 03:50:44;;;;;;;15.45;11.90;;;563.50;2406.40;;;;;;5033870;28;20021;-77
2021/07/24 03:53:10;;;;;;;14.68;11.40;;;563.50;2432.00;;;;;;5035665;28;20103;-76
2021/07/24 03:55:37;;;;;;;15.05;12.50;;;563.20;2432.00;;;;;;5034339;28;20025;-76
2021/07/24 03:58:02;;;;;;;14.82;12.23;;;538.40;2406.40;;;;;;5035355;28;20018;-76
2021/07/24 04:00:34;;;;;;;16.98;12.45;;;538.40;2406.40;;;;;;5033906;28;20056;-76
2021/07/24 04:03:04;;;;;;;18.27;12.73;;;538.30;2406.40;;;;;;5033528;28;20568;-77
2021/07/24 04:05:38;;;;;;;21.38;13.85;;;538.00;2406.40;;;;;;5033820;28;20033;-76
2021/07/24 04:08:04;;;;;;;17.48;12.90;;;537.90;2406.40;;;;;;5034878;28;20026;-76
2021/07/24 04:10:30;;;;;;;16.60;12.75;;;537.80;2406.40;;;;;;5034902;28;20029;-76
2021/07/24 04:12:56;;;;;;;20.25;13.38;;;537.70;2406.40;;;;;;5034812;28;20022;-78
2021/07/24 04:15:22;;;;;;;21.15;14.10;;;512.90;2380.80;;;;;;5034794;28;20021;-76
2021/07/24 04:17:48;;;;;;;19.45;13.65;;;512.80;2380.80;;;;;;5035133;28;20025;-77
2021/07/24 04:20:15;;;;;;;25.98;13.65;;;512.60;2380.80;;;;;;5033384;28;20053;-77
2021/07/24 04:22:42;;;;;;;21.90;14.25;;;512.60;2380.80;;;;;;5034887;28;20029;-76
2021/07/24 04:25:08;;;;;;;22.20;14.23;;;512.50;2380.80;;;;;;5034375;28;20049;-76
2021/07/24 04:27:34;;;;;;;22.13;14.23;;;512.50;2380.80;;;;;;5034250;28;20033;-76
2021/07/24 04:30:00;;;;;;;18.98;13.77;;;512.60;2380.80;;;;;;5034288;28;20022;-77
2021/07/24 04:32:26;;;;;;;20.30;14.52;;;512.60;2380.80;;;;;;5033445;28;20033;-76
2021/07/24 04:34:51;;;;;;;21.10;15.27;;;512.60;2380.80;;;;;;5033206;28;20416;-76
2021/07/24 04:37:17;;;;;;;21.80;15.30;;;512.60;2380.80;;;;;;5033480;28;20056;-77
2021/07/24 04:39:43;;;;;;;19.58;15.32;;;512.60;2380.80;;;;;;5034484;28;20026;-76
2021/07/24 04:42:09;;;;;;;23.80;14.13;;;512.70;2380.80;;;;;;5034318;28;20036;-77
2021/07/24 04:44:34;;;;;;;19.50;13.35;;;512.70;2380.80;;;;;;5033061;28;20026;-76
2021/07/24 04:47:00;;;;;;;17.38;12.20;;;512.70;2380.80;;;;;;5033028;28;20033;-76
2021/07/24 04:49:26;;;;;;;23.13;14.90;;;512.70;2380.80;;;;;;5034342;28;20097;-76
2021/07/24 04:51:52;;;;;;;17.73;13.13;;;512.70;2380.80;;;;;;5034141;28;20026;-75
2021/07/24 04:54:17;;;;;;;20.90;13.55;;;512.80;2380.80;;;;;;5033288;28;20539;-77
2021/07/24 04:56:43;;;;;;;17.05;13.45;;;512.90;2380.80;;;;;;5032610;28;20029;-76
2021/07/24 04:59:10;;;;;;;16.55;12.88;;;512.90;2380.80;;;;;;5034063;28;20029;-78
2021/07/24 05:01:36;;;;;;;15.20;12.95;;;537.60;2406.40;;;;;;5034110;28;20022;-77
2021/07/24 05:04:02;;;;;;;13.90;12.05;;;537.60;2406.40;;;;;;5032823;28;20029;-76
2021/07/24 05:06:30;;;;;;;19.65;14.25;;;537.60;2406.40;;;;;;5034295;28;20535;-76
2021/07/24 05:08:56;;;;;;;18.05;13.77;;;537.60;2406.40;;;;;;5032803;28;20476;-77
2021/07/24 05:11:23;;;;;;;22.00;13.10;;;537.70;2406.40;;;;;;5032681;28;20036;-77
2021/07/24 05:13:49;;;;;;;18.13;12.52;;;537.70;2406.40;;;;;;5033884;28;20025;-77
2021/07/24 05:16:14;;;;;;;19.05;14.13;;;537.80;2406.40;;;;;;5033442;28;20040;-78
2021/07/24 05:18:40;;;;;;;16.73;14.95;;;538.00;2406.40;;;;;;5033953;28;20454;-76
2021/07/24 05:21:06;;;;;;;25.58;15.68;;;538.00;2406.40;;;;;;5035295;28;20029;-76
2021/07/24 05:23:31;;;;;;;18.73;13.05;;;538.00;2406.40;;;;;;5036558;28;20026;-77
2021/07/24 05:25:57;;;;;;;18.00;14.65;;;538.10;2406.40;;;;;;5035931;28;20049;-76
2021/07/24 05:28:23;;;;;;;20.23;14.32;;;538.30;2406.40;;;;;;5034080;28;20112;-74
2021/07/24 05:30:48;;;;;;;24.40;15.40;;;538.30;2406.40;;;;;;5034967;28;20029;-76
2021/07/24 05:33:14;;;;;;;20.00;13.93;;;538.30;2406.40;;;;;;5034788;28;20053;-75
2021/07/24 05:35:40;;;;;;;22.23;15.15;;;538.40;2406.40;;;;;;5034609;28;20025;-75
2021/07/24 05:38:05;;;;;;;18.60;14.50;;;538.40;2406.40;;;;;;5033648;28;20021;-76
2021/07/24 05:40:31;;;;;;;22.48;14.35;;;538.40;2406.40;;;;;;5033552;28;20409;-78
2021/07/24 05:43:01;;;;;;;19.15;14.90;;;538.40;2406.40;;;;;;5032142;28;20117;-76
2021/07/24 05:45:26;;;;;;;19.80;15.30;;;538.40;2406.40;;;;;;5032034;28;20485;-77
2021/07/24 05:47:52;;;;;;;23.88;16.17;;;538.40;2406.40;;;;;;5032462;28;20028;-75
2021/07/24 05:50:18;;;;;;;19.83;15.65;;;538.40;2406.40;;;;;;5032067;28;20030;-76
2021/07/24 05:52:44;;;;;;;21.20;16.05;;;538.50;2406.40;;;;;;5033377;28;20030;-76
2021/07/24 05:55:10;;;;;;;22.35;17.63;;;538.50;2406.40;;;;;;5033422;28;20057;-77
2021/07/24 05:57:39;;;;;;;25.00;16.67;;;563.20;2432.00;;;;;;5031994;28;20061;-75
2021/07/24 06:00:05;;;;;;;19.70;16.73;;;563.40;2432.00;;;;;;5031869;28;20038;-77
2021/07/24 06:02:31;;;;;;;27.95;18.75;;;563.40;2432.00;;;;;;5033335;28;20104;-77
2021/07/24 06:04:57;;;;;;;25.75;19.92;;;563.40;2432.00;;;;;;5032876;28;20128;-77
2021/07/24 06:07:23;;;;;;;23.73;17.65;;;563.50;2432.00;;;;;;5033113;28;20500;-77
2021/07/24 06:09:48;;;;;;;25.45;18.00;;;563.60;2432.00;;;;;;5033194;28;20028;-78
2021/07/24 06:12:14;;;;;;;21.67;17.08;;;563.60;2432.00;;;;;;5033237;28;20075;-76
2021/07/24 06:14:40;;;;;;;27.20;16.83;;;563.60;2432.00;;;;;;5031713;28;20088;-75
2021/07/24 06:17:06;;;;;;;24.10;16.23;;;563.70;2432.00;;;;;;5033107;28;20026;-78
2021/07/24 06:19:32;;;;;;;20.33;16.23;;;563.90;2432.00;;;;;;5034639;28;20163;-75
2021/07/24 06:21:59;;;;;;;21.27;15.63;;;563.90;2406.40;;;;;;5035462;28;20025;-76
2021/07/24 06:24:25;;;;;;;22.55;16.88;;;563.90;2380.80;;;;;;5035915;28;20437;-78
2021/07/24 06:26:50;;;;;;;22.83;17.05;;;564.10;2380.80;;;;;;5034746;28;20496;-76
2021/07/24 06:29:16;;;;;;;26.67;17.85;;;564.00;2380.80;;;;;;5036728;28;20136;-75
2021/07/24 06:31:42;;;;;;;25.73;16.30;;;564.00;2406.40;;;;;;5036725;28;20022;-77
2021/07/24 06:34:08;;;;;;;34.90;27.98;;;564.10;2380.80;;;;;;5035234;28;20030;-77
2021/07/24 06:36:34;;;;;;;40.35;36.05;;;564.10;2355.20;;;;;;5036601;28;20040;-77
2021/07/24 06:39:00;;;;;;;37.08;29.33;;;564.10;2329.60;;;;;;5035411;28;20028;-77
2021/07/24 06:41:30;;;;;;;35.20;27.08;;;564.00;2329.60;;;;;;5035446;28;20044;-75
2021/07/24 06:43:56;;;;;;;29.60;24.80;;;564.10;2329.60;;;;;;5035028;28;20116;-76
2021/07/24 06:46:23;;;;;;;29.08;21.75;;;564.10;2329.60;;;;;;5036688;28;20444;-76
2021/07/24 06:48:49;;;;;;;29.67;23.02;;;588.90;2304.00;;;;;;5036752;28;20053;-76
2021/07/24 06:51:14;;;;;;;19.92;17.58;;;589.00;2278.40;;;;;;5036405;28;20029;-76
2021/07/24 06:53:40;;;;;;;21.15;15.68;;;589.00;2278.40;;;;;;5035256;28;20465;-77
2021/07/24 06:56:06;;;;;;;27.63;18.95;;;589.10;2278.40;;;;;;5037712;28;20025;-76
2021/07/24 06:58:33;;;;;;;27.52;18.55;;;589.20;2252.80;;;;;;5036575;28;20053;-77
2021/07/24 07:00:59;;;;;;;24.05;16.88;;;589.20;2252.80;;;;;;5035931;28;20080;-77
2021/07/24 07:03:25;;;;;;;22.73;16.77;;;589.40;2227.20;;;;;;5037397;28;20389;-77
2021/07/24 07:05:52;;;;;;;23.67;17.65;;;589.50;2278.40;;;;;;5036683;28;20044;-77
2021/07/24 07:08:17;;;;;;;21.75;16.63;;;589.60;2201.60;;;;;;5041042;28;20033;-78
2021/07/24 07:10:43;;;;;;;20.73;15.70;;;589.70;2176.00;;;;;;5038063;28;20489;-77
2021/07/24 07:13:09;;;;;;;20.42;14.57;;;614.40;2150.40;;;;;;5037124;28;20140;-74
2021/07/24 07:15:35;;;;;;;20.27;14.68;;;614.60;2176.00;;;;;;5039191;28;20058;-77
2021/07/24 07:18:01;;;;;;;15.88;13.40;;;614.60;2099.20;;;;;;5037676;28;20071;-76
2021/07/24 07:20:26;;;;;;;17.52;13.40;;;614.70;2099.20;;;;;;5036050;28;20041;-77
2021/07/24 07:22:52;;;;;;;18.15;14.27;;;614.80;2124.80;;;;;;5034485;28;20496;-78
2021/07/24 07:25:18;;;;;;;20.15;13.45;;;615.00;2124.80;;;;;;5035512;28;20515;-77
2021/07/24 07:27:45;;;;;;;18.58;14.68;;;615.00;2048.00;;;;;;5034768;28;20080;-78
2021/07/24 07:30:13;;;;;;;18.60;13.57;;;615.00;2048.00;;;;;;5033856;28;20394;-79
2021/07/24 07:32:39;;;;;;;14.65;12.70;;;615.10;2022.40;;;;;;5034062;28;20048;-78
2021/07/24 07:35:05;;;;;;;17.17;12.77;;;615.20;2022.40;;;;;;5035495;28;20029;-77
2021/07/24 07:37:31;;;;;;;15.48;12.32;;;615.30;1996.80;;;;;;5036234;28;20029;-79
2021/07/24 07:39:57;;;;;;;17.17;12.45;;;640.00;1996.80;;;;;;5035594;28;20018;-78
2021/07/24 07:42:23;;;;;;;14.50;12.43;;;640.10;1971.20;;;;;;5034217;28;20163;-78
2021/07/24 07:44:48;;;;;;;24.05;15.63;;;640.30;2048.00;;;;;;5034167;28;20024;-77
2021/07/24 07:47:14;;;;;;;19.98;13.30;;;640.50;1996.80;;;;;;5035231;28;20033;-77
2021/07/24 07:49:40;;;;;;;15.88;12.15;;;640.70;1971.20;;;;;;5035682;28;20026;-78
2021/07/24 07:52:07;;;;;;;21.30;14.75;;;640.90;1945.60;;;;;;5032142;28;20057;-76
2021/07/24 07:54:33;;;;;;;19.98;13.13;;;665.70;1945.60;;;;;;5032897;28;20541;-76
2021/07/24 07:57:02;;;;;;;17.95;12.43;;;665.80;1894.40;;;;;;5034602;28;20040;-76
2021/07/24 07:59:28;;;;;;;22.88;12.02;;;666.00;1894.40;;;;;;5033728;28;20037;-77
2021/07/24 08:01:54;;;;;;;23.58;15.93;;;666.10;1843.20;;;;;;5033721;28;20142;-78
2021/07/24 08:04:20;;;;;;;15.82;14.13;;;666.10;1843.20;;;;;;5033509;28;20040;-77
2021/07/24 08:06:46;;;;;;;20.55;12.80;;;666.20;1817.60;;;;;;5034423;28;20108;-78
2021/07/24 08:09:12;;;;;;;22.30;13.27;;;666.40;1817.60;;;;;;5034713;28;20056;-76
2021/07/24 08:11:39;;;;;;;33.38;14.95;;;691.20;1817.60;;;;;;5035268;28;20029;-79
2021/07/24 08:14:04;;;;;;;16.23;12.93;;;691.30;1792.00;;;;;;5033492;28;20117;-76
2021/07/24 08:16:30;;;;;;;20.25;11.57;;;691.40;1766.40;;;;;;5034345;28;20071;-79
2021/07/24 08:18:56;;;;;;;16.80;12.90;;;691.60;1766.40;;;;;;5033804;28;20029;-77
2021/07/24 08:21:22;;;;;;;14.13;12.40;;;691.70;1740.80;;;;;;5034970;28;20026;-78
2021/07/24 08:23:49;;;;;;;17.02;10.60;;;691.70;1740.80;;;;;;5033381;28;20048;-76
2021/07/24 08:26:14;;;;;;;15.05;12.02;;;691.70;1715.20;;;;;;5034427;28;20091;-80
2021/07/24 08:28:40;;;;;;;16.45;11.52;;;691.80;1715.20;;;;;;5032244;28;20084;-78
2021/07/24 08:31:06;;;;;;;16.52;10.60;;;691.90;1689.60;;;;;;5032797;28;20049;-78
2021/07/24 08:33:33;;;;;;;11.52;10.02;;;692.10;1612.80;;;;;;5034736;28;20049;-78
2021/07/24 08:35:59;;;;;;;15.95;10.82;;;716.80;1664.00;;;;;;5033322;28;20089;-79
2021/07/24 08:38:25;;;;;;;11.52;9.35;;;716.90;1638.40;;;;;;5032595;28;20022;-75
2021/07/24 08:40:51;;;;;;;18.70;14.73;;;716.90;1638.40;;;;;;5033890;28;20405;-77
2021/07/24 08:43:17;;;;;;;15.40;12.68;;;717.00;1587.20;;;;;;5032890;28;20066;-78
2021/07/24 08:45:43;;;;;;;12.32;9.68;;;717.30;1612.80;;;;;;5034062;28;20029;-76
2021/07/24 08:48:09;;;;;;;12.43;9.65;;;717.40;1561.60;;;;;;5033280;28;20137;-77
2021/07/24 08:50:36;;;;;;;11.55;9.45;;;717.50;1587.20;;;;;;5032295;28;20485;-76
2021/07/24 08:53:06;;;;;;;11.50;10.05;;;717.60;1536.00;;;;;;5034636;28;20541;-77
2021/07/24 08:55:34;;;;;;;11.25;9.35;;;717.70;1510.40;;;;;;5034407;28;20048;-77
2021/07/24 08:58:00;;;;;;;14.75;10.02;;;742.40;1510.40;;;;;;5033096;28;20049;-77
2021/07/24 09:00:27;;;;;;;10.93;9.38;;;742.40;1510.40;;;;;;5033247;28;20040;-77
2021/07/24 09:02:57;;;;;;;11.05;9.85;;;717.70;1484.80;;;;;;5033397;28;20381;-80
2021/07/24 09:05:23;;;;;;;12.23;9.40;;;717.70;1484.80;;;;;;5032833;28;20472;-78
2021/07/24 09:07:51;;;;;;;13.93;9.57;;;742.40;1510.40;;;;;;5032740;28;20049;-79
2021/07/24 09:10:18;;;;;;;10.82;8.52;;;742.50;1510.40;;;;;;5032881;28;20030;-78
2021/07/24 09:12:49;;;;;;;11.75;9.15;;;742.60;1433.60;;;;;;5033989;28;20036;-76
2021/07/24 09:15:17;;;;;;;11.32;8.50;;;742.70;1484.80;;;;;;5032804;28;20075;-80
2021/07/24 09:17:43;;;;;;;10.57;8.82;;;742.90;1459.20;;;;;;5032601;28;20029;-77
2021/07/24 09:20:10;;;;;;;13.82;8.70;;;743.00;1459.20;;;;;;5033196;28;20021;-76
2021/07/24 09:22:40;;;;;;;13.32;8.80;;;743.10;1433.60;;;;;;5032599;28;20360;-77
2021/07/24 09:25:17;;;;;;;14.15;9.63;;;743.30;1433.60;;;;;;5032785;28;20036;-77
2021/07/24 09:27:48;;;;;;;13.27;9.60;;;768.00;1433.60;;;;;;5032471;28;20489;-77
2021/07/24 09:30:34;;;;;;;12.68;9.30;;;768.10;1382.40;;;;;;5032523;28;20060;-77
2021/07/24 09:33:05;;;;;;;12.52;9.50;;;768.20;1356.80;;;;;;5033005;28;20482;-78
2021/07/24 09:35:52;;;;;;;9.73;8.48;;;768.30;1356.80;;;;;;5033075;28;20045;-78
2021/07/24 09:38:28;;;;;;;10.15;8.30;;;768.40;1331.20;;;;;;5033635;28;20034;-75
2021/07/24 09:40:55;;;;;;;8.75;7.38;;;768.50;1331.20;;;;;;5033412;28;20037;-77
2021/07/24 09:43:31;;;;;;;11.50;7.80;;;768.60;1280.00;;;;;;5032791;28;20129;-79
2021/07/24 09:46:13;;;;;;;11.75;6.55;;;768.50;1203.20;;;;;;5030756;28;20037;-78
2021/07/24 09:48:45;;;;;;;10.05;7.00;;;768.60;1203.20;;;;;;5032615;28;20466;-77
2021/07/24 09:51:12;;;;;;;15.10;7.50;;;768.60;1228.80;;;;;;5030990;28;20422;-77
2021/07/24 09:53:41;;;;;;;14.73;8.10;;;768.60;1228.80;;;;;;5032275;28;20037;-80
2021/07/24 09:56:14;;;;;;;8.77;6.95;;;768.50;1254.40;;;;;;5036264;28;20025;-77
2021/07/24 09:58:43;;;;;;;9.07;6.63;;;768.60;1228.80;;;;;;5036560;28;20029;-77
2021/07/24 10:01:11;;;;;;;11.93;7.22;;;768.60;1254.40;;;;;;5036169;28;20079;-77
2021/07/24 10:03:39;;;;;;;59.13;13.00;;;768.40;1254.40;;;;;;5036223;28;20025;-77
2021/07/24 10:06:16;;;;;;;10.65;7.60;;;768.40;1305.60;;;;;;5034913;28;20060;-78
2021/07/24 10:08:44;;;;;;;9.73;8.18;;;768.70;1280.00;;;;;;5035536;28;20029;-80
2021/07/24 10:11:10;;;;;;;12.20;6.80;;;768.90;1254.40;;;;;;5037020;28;20055;-77
2021/07/24 10:13:38;;;;;;;9.65;7.05;;;793.70;1254.40;;;;;;5036151;28;20025;-78
2021/07/24 10:16:04;;;;;;;13.70;6.30;;;794.00;1280.00;;;;;;5035714;28;20116;-76
2021/07/24 10:18:30;;;;;;;9.82;7.63;;;794.50;1152.00;;;;;;5039393;28;20017;-77
2021/07/24 10:20:56;;;;;;;8.55;7.32;;;794.10;1203.20;;;;;;5035891;28;20438;-76
2021/07/24 10:23:25;;;;;;;8.23;6.60;;;794.20;1203.20;;;;;;5036254;28;20049;-77
2021/07/24 10:26:09;;;;;;;8.57;6.88;;;794.20;1100.80;;;;;;5036630;28;20121;-77
2021/07/24 10:28:47;;;;;;;9.38;6.88;;;794.10;1126.40;;;;;;5036558;28;20030;-76
2021/07/24 10:31:23;;;;;;;8.98;7.25;;;794.20;1203.20;;;;;;5035565;28;20115;-77
2021/07/24 10:33:53;;;;;;;11.00;7.63;;;794.50;1228.80;;;;;;5035811;28;20037;-77
2021/07/24 10:36:19;;;;;;;9.25;7.95;;;819.30;1203.20;;;;;;5035887;28;20032;-77
2021/07/24 10:38:58;;;;;;;7.47;6.60;;;819.50;1228.80;;;;;;5036265;28;20021;-78
2021/07/24 10:41:24;;;;;;;13.43;7.70;;;819.50;1177.60;;;;;;5036630;28;20034;-78
2021/07/24 10:44:07;;;;;;;8.43;7.32;;;819.50;1177.60;;;;;;5035734;28;20033;-78
2021/07/24 10:46:45;;;;;;;10.48;8.10;;;794.50;1126.40;;;;;;5035662;28;20037;-79
2021/07/24 10:49:23;;;;;;;10.30;7.25;;;794.20;1126.40;;;;;;5035950;28;20438;-79
2021/07/24 10:51:56;;;;;;;8.93;6.65;;;794.40;1100.80;;;;;;5035640;28;20133;-77
2021/07/24 10:54:22;;;;;;;9.00;7.50;;;794.50;1152.00;;;;;;5035564;28;20029;-78
2021/07/24 10:56:48;;;;;;;7.75;6.43;;;819.30;1152.00;;;;;;5035488;28;20108;-78
2021/07/24 10:59:14;;;;;;;9.43;6.70;;;819.30;1126.40;;;;;;5035577;28;20107;-76
2021/07/24 11:01:45;;;;;;;13.98;7.93;;;819.30;1177.60;;;;;;5035291;28;20017;-77
2021/07/24 11:04:36;;;;;;;9.40;7.15;;;819.50;1152.00;;;;;;5035304;28;20052;-77
2021/07/24 11:07:20;;;;;;;8.35;7.00;;;819.80;1126.40;;;;;;5035277;28;20045;-77
2021/07/24 11:10:07;;;;;;;8.43;7.13;;;819.80;1075.20;;;;;;5035904;28;20105;-81
2021/07/24 11:12:34;;;;;;;9.52;7.35;;;819.60;1075.20;;;;;;5035174;28;20037;-81
2021/07/24 11:15:01;;;;;;;9.02;7.90;;;819.40;1075.20;;;;;;5036979;28;20482;-79
2021/07/24 11:17:27;;;;;;;8.63;6.85;;;819.30;1075.20;;;;;;5035303;28;20493;-78
2021/07/24 11:19:53;;;;;;;10.13;9.00;;;794.50;1100.80;;;;;;5036954;28;20021;-79
2021/07/24 11:22:24;;;;;;;10.45;7.18;;;819.30;1100.80;;;;;;5037641;28;20064;-79
2021/07/24 11:24:49;;;;;;;13.10;8.38;;;819.40;1100.80;;;;;;5035170;28;20048;-79
2021/07/24 11:27:36;;;;;;;8.95;7.90;;;819.60;1075.20;;;;;;5035625;28;20133;-80
2021/07/24 11:30:05;;;;;;;9.48;7.93;;;819.60;1075.20;;;;;;5034811;28;20037;-79
2021/07/24 11:32:41;;;;;;;7.95;7.07;;;819.80;1075.20;;;;;;5036172;28;20017;-76
2021/07/24 11:35:15;;;;;;;9.48;8.20;;;820.00;1100.80;;;;;;5034957;28;20374;-76
2021/07/24 11:37:49;;;;;;;11.82;8.45;;;844.80;1075.20;;;;;;5035070;28;20120;-77
2021/07/24 11:40:23;;;;;;;10.25;9.20;;;845.00;1100.80;;;;;;5034528;28;20060;-78
2021/07/24 11:42:58;;;;;;;12.65;10.02;;;845.10;1100.80;;;;;;5037430;28;20034;-78
2021/07/24 11:45:24;;;;;;;9.77;8.75;;;845.30;1126.40;;;;;;5036110;28;20022;-78
2021/07/24 11:48:18;;;;;;;12.85;8.85;;;845.40;1075.20;;;;;;5037973;28;20474;-78
2021/07/24 11:50:47;;;;;;;11.57;9.07;;;845.60;1100.80;;;;;;5036129;28;20071;-79
2021/07/24 11:53:18;;;;;;;9.05;8.10;;;845.70;1049.60;;;;;;5035445;28;20188;-78
2021/07/24 11:55:44;;;;;;;9.23;8.30;;;870.40;1049.60;;;;;;5034190;28;20025;-78
2021/07/24 11:58:14;;;;;;;9.23;8.27;;;870.40;1024.00;;;;;;5034130;28;20037;-78
2021/07/24 12:00:41;;;;;;;10.27;8.48;;;845.60;1024.00;;;;;;5034169;28;20068;-79
2021/07/24 12:03:16;;;;;;;8.93;8.02;;;845.30;1049.60;;;;;;5034068;28;20676;-79
2021/07/24 12:05:43;;;;;;;10.13;8.55;;;845.30;1049.60;;;;;;5033850;28;20397;-77
2021/07/24 12:08:10;;;;;;;11.13;9.55;;;845.20;1049.60;;;;;;5033617;28;20045;-78
2021/07/24 12:10:43;;;;;;;8.77;7.90;;;845.20;1049.60;;;;;;5033754;28;20086;-77